createdAt,value
2023-01-10T00:03:55.742Z,18.80
2023-01-10T00:08:52.949Z,17.60
2023-01-10T00:13:54.158Z,16.50
2023-01-10T00:18:52.374Z,15.80
2023-01-10T00:23:52.596Z,13.30
2023-01-10T00:28:51.775Z,15.20
2023-01-10T00:33:49.975Z,12.00
2023-01-10T00:38:51.185Z,12.10
2023-01-10T00:43:48.446Z,9.20
2023-01-10T00:48:48.667Z,10.90
2023-01-10T00:53:47.823Z,10.00
2023-01-10T00:58:47.995Z,10.90
2023-01-10T01:03:45.163Z,6.80
2023-01-10T01:08:43.348Z,7.00
2023-01-10T01:13:44.570Z,9.10
2023-01-10T01:18:44.755Z,6.80
2023-01-10T01:23:41.938Z,6.40
2023-01-10T01:28:43.145Z,7.10
2023-01-10T01:33:41.324Z,5.70
2023-01-10T01:38:40.526Z,4.50
2023-01-10T01:43:38.682Z,3.10
2023-01-10T01:48:37.907Z,3.20
2023-01-10T01:53:38.062Z,2.80
2023-01-10T01:58:36.256Z,2.80
2023-01-10T02:03:36.459Z,2.90
2023-01-10T02:08:34.642Z,2.50
2023-01-10T02:13:34.840Z,2.70
2023-01-10T02:18:33.016Z,2.90
2023-01-10T02:23:33.247Z,2.00
2023-01-10T02:28:32.412Z,2.80
2023-01-10T02:33:31.585Z,2.90
2023-01-10T02:38:29.775Z,2.50
2023-01-10T02:43:28.968Z,2.60
2023-01-10T02:48:30.147Z,2.00
2023-01-10T02:53:30.348Z,3.00
2023-01-10T02:58:27.485Z,2.30
2023-01-10T03:03:26.647Z,2.80
2023-01-10T03:08:27.524Z,3.30
2023-01-10T03:13:25.106Z,2.90
2023-01-10T03:18:23.298Z,2.60
2023-01-10T03:23:22.547Z,2.20
2023-01-10T03:28:21.762Z,1.70
2023-01-10T03:33:21.957Z,2.50
2023-01-10T03:38:20.146Z,2.40
2023-01-10T03:43:19.333Z,2.10
2023-01-10T03:48:19.551Z,1.60
2023-01-10T03:53:17.725Z,2.90
2023-01-10T03:58:16.879Z,1.70
2023-01-10T04:03:16.157Z,2.00
2023-01-10T04:08:16.328Z,2.00
2023-01-10T04:13:14.483Z,1.90
2023-01-10T04:18:13.671Z,2.00
2023-01-10T04:23:12.837Z,2.10
2023-01-10T04:28:12.010Z,2.30
2023-01-10T04:33:13.182Z,1.70
2023-01-10T04:38:09.354Z,2.80
2023-01-10T04:43:09.538Z,3.00
2023-01-10T04:48:10.716Z,2.70
2023-01-10T04:53:07.869Z,2.90
2023-01-10T04:58:07.072Z,2.40
2023-01-10T05:03:07.348Z,3.40
2023-01-10T05:08:06.596Z,2.30
2023-01-10T05:13:04.745Z,2.40
2023-01-10T05:18:04.939Z,2.40
2023-01-10T05:23:04.123Z,3.20
2023-01-10T05:28:03.316Z,2.00
2023-01-10T05:33:01.509Z,2.20
2023-01-10T05:38:01.753Z,3.20
2023-01-10T05:42:59.921Z,2.10
2023-01-10T05:47:59.145Z,3.50
2023-01-10T05:52:58.323Z,2.60
2023-01-10T05:57:58.551Z,3.00
2023-01-10T06:02:56.814Z,3.20
2023-01-10T06:07:57.002Z,3.30
2023-01-10T06:12:55.202Z,3.00
2023-01-10T06:17:55.361Z,2.00
2023-01-10T06:22:53.534Z,2.40
2023-01-10T06:27:53.692Z,2.90
2023-01-10T06:32:51.851Z,3.30
2023-01-10T06:37:51.059Z,2.40
2023-01-10T06:42:50.216Z,3.00
2023-01-10T06:47:49.422Z,2.40
2023-01-10T06:52:49.665Z,2.70
2023-01-10T06:57:47.845Z,2.20
2023-01-10T07:02:47.049Z,2.50
2023-01-10T07:07:48.251Z,3.00
2023-01-10T07:12:45.436Z,2.60
2023-01-10T07:17:45.621Z,2.70
2023-01-10T07:22:43.796Z,2.80
2023-01-10T07:27:43.981Z,3.00
2023-01-10T07:32:44.179Z,4.30
2023-01-10T07:37:42.357Z,2.10
2023-01-10T07:42:40.586Z,2.60
2023-01-10T07:47:40.809Z,2.00
2023-01-10T07:52:39.991Z,3.00
2023-01-10T07:57:37.183Z,1.90
2023-01-10T08:02:37.515Z,2.40
2023-01-10T08:07:37.552Z,2.30
2023-01-10T08:12:35.744Z,2.60
2023-01-10T08:17:36.952Z,2.40
2023-01-10T08:22:34.170Z,3.80
2023-01-10T08:27:33.381Z,2.60
2023-01-10T08:32:32.626Z,1.70
2023-01-10T08:37:31.799Z,2.40
2023-01-10T08:42:31.000Z,4.10
2023-01-10T08:47:31.183Z,2.80
2023-01-10T08:52:29.363Z,4.70
2023-01-10T08:57:28.500Z,1.50
2023-01-10T09:02:27.698Z,2.90
2023-01-10T09:07:27.882Z,2.30
2023-01-10T09:12:26.104Z,2.40
2023-01-10T09:17:26.296Z,2.20
2023-01-10T09:22:25.501Z,2.10
2023-01-10T09:27:23.721Z,2.70
2023-01-10T09:32:22.938Z,3.40
2023-01-10T09:37:23.121Z,5.50
2023-01-10T09:42:21.298Z,5.30
2023-01-10T09:47:23.132Z,43.60
2023-01-10T09:52:20.781Z,39.40
2023-01-10T09:57:18.972Z,64.20
2023-01-10T10:02:18.158Z,112.00
2023-01-10T10:07:19.363Z,95.20
2023-01-10T10:12:15.538Z,69.60
2023-01-10T10:17:17.782Z,95.70
2023-01-10T10:22:14.962Z,74.10
2023-01-10T10:27:14.175Z,72.20
2023-01-10T10:32:13.381Z,29.70
2023-01-10T10:37:13.555Z,37.80
2023-01-10T10:42:11.745Z,147.20
2023-01-10T10:47:10.923Z,95.80
2023-01-10T10:52:10.108Z,156.10
2023-01-10T10:57:09.283Z,97.60
2023-01-10T11:02:09.554Z,92.70
2023-01-10T11:07:08.750Z,135.90
2023-01-10T11:12:08.909Z,130.80
2023-01-10T11:17:07.051Z,80.20
2023-01-10T11:22:05.211Z,56.80
2023-01-10T11:27:04.494Z,39.70
2023-01-10T11:32:04.777Z,22.20
2023-01-10T11:37:05.978Z,16.50
2023-01-10T11:42:02.145Z,22.90
2023-01-10T11:47:02.349Z,13.50
2023-01-10T11:52:01.543Z,12.60
2023-01-10T11:56:59.719Z,13.70
2023-01-10T12:01:59.940Z,8.50
2023-01-10T12:06:59.144Z,10.10
2023-01-10T12:11:57.387Z,13.80
2023-01-10T12:16:55.712Z,221.10
2023-01-10T12:21:55.945Z,78.10
2023-01-10T12:26:55.274Z,64.80
2023-01-10T12:31:55.493Z,67.90
2023-01-10T12:36:53.865Z,36.20
2023-01-10T12:41:52.947Z,30.40
2023-01-10T12:47:06.647Z,33.60
2023-01-10T12:51:52.319Z,15.60
2023-01-10T12:56:50.501Z,19.80
2023-01-10T13:01:50.872Z,79.10
2023-01-10T13:06:49.086Z,83.20
2023-01-10T13:11:49.317Z,87.30
2023-01-10T13:16:48.517Z,228.30
2023-01-10T13:21:46.728Z,237.90
2023-01-10T13:26:45.920Z,63.80
2023-01-10T13:31:45.091Z,62.40
2023-01-10T13:36:45.302Z,55.70
2023-01-10T13:41:44.481Z,44.70
2023-01-10T13:46:42.658Z,38.60
2023-01-10T13:51:42.148Z,27.30
2023-01-10T13:56:41.134Z,25.10
2023-01-10T14:01:41.559Z,45.90
2023-01-10T14:06:40.587Z,48.80
2023-01-10T14:11:38.755Z,87.10
2023-01-10T14:16:46.154Z,196.60
2023-01-10T14:21:37.095Z,195.60
2023-01-10T14:26:37.316Z,333.10
2023-01-10T14:31:35.546Z,324.00
2023-01-10T14:36:36.740Z,277.30
2023-01-10T14:41:34.910Z,262.60
2023-01-10T14:46:35.295Z,232.60
2023-01-10T14:51:34.370Z,213.00
2023-01-10T14:56:31.555Z,188.60
2023-01-10T15:01:34.027Z,177.20
2023-01-10T15:06:30.022Z,165.10
2023-01-10T15:11:29.715Z,271.10
2023-01-10T15:16:28.515Z,306.40
2023-01-10T15:21:27.715Z,267.50
2023-01-10T15:26:26.925Z,236.40
2023-01-10T15:31:27.148Z,213.20
2023-01-10T15:36:26.364Z,176.80
2023-01-10T15:41:24.579Z,173.60
2023-01-10T15:46:24.782Z,156.70
2023-01-10T15:51:23.922Z,140.40
2023-01-10T15:56:22.184Z,128.90
2023-01-10T16:01:22.448Z,118.30
2023-01-10T16:06:20.667Z,107.40
2023-01-10T16:11:20.833Z,110.50
2023-01-10T16:16:19.085Z,234.60
2023-01-10T16:21:17.290Z,237.00
2023-01-10T16:26:19.511Z,202.90
2023-01-10T16:31:16.699Z,254.80
2023-01-10T16:36:16.886Z,310.30
2023-01-10T16:41:15.053Z,271.30
2023-01-10T16:46:14.294Z,211.30
2023-01-10T16:51:13.489Z,197.10
2023-01-10T16:56:12.652Z,170.60
2023-01-10T17:01:11.950Z,154.70
2023-01-10T17:06:10.193Z,132.60
2023-01-10T17:11:11.366Z,119.20
2023-01-10T17:16:10.556Z,108.50
2023-01-10T17:21:09.764Z,93.30
2023-01-10T17:26:07.911Z,81.90
2023-01-10T17:31:08.104Z,74.10
2023-01-10T17:36:06.299Z,71.60
2023-01-10T17:41:05.506Z,60.50
2023-01-10T17:46:06.747Z,60.30
2023-01-10T17:51:04.954Z,55.10
2023-01-10T17:56:05.151Z,51.10
2023-01-10T18:01:02.434Z,45.50
2023-01-10T18:06:01.614Z,44.60
2023-01-10T18:11:00.894Z,41.50
2023-01-10T18:16:00.048Z,39.00
2023-01-10T18:20:59.238Z,35.90
2023-01-10T18:25:58.429Z,33.70
2023-01-10T18:30:57.669Z,31.90
2023-01-10T18:35:56.860Z,29.90
2023-01-10T18:40:56.296Z,27.60
2023-01-10T18:45:55.346Z,26.40
2023-01-10T18:50:55.556Z,24.80
2023-01-10T18:55:54.778Z,21.80
2023-01-10T19:00:52.996Z,21.60
2023-01-10T19:05:55.594Z,19.20
2023-01-10T19:11:13.822Z,18.80
2023-01-10T19:15:50.801Z,16.80
2023-01-10T19:20:51.407Z,16.90
2023-01-10T19:25:51.531Z,18.60
2023-01-10T19:31:02.538Z,21.70
2023-01-10T19:35:47.808Z,160.10
2023-01-10T19:40:48.001Z,176.80
2023-01-10T19:45:46.189Z,148.90
2023-01-10T19:50:47.372Z,325.00
2023-01-10T19:55:44.597Z,336.30
2023-01-10T20:00:43.807Z,299.70
2023-01-10T20:05:44.279Z,272.80
2023-01-10T20:10:42.661Z,230.40
2023-01-10T20:15:43.445Z,206.10
2023-01-10T20:20:41.596Z,370.10
2023-01-10T20:25:40.323Z,362.10
2023-01-10T20:30:44.054Z,347.70
2023-01-10T20:35:38.732Z,346.00
2023-01-10T20:40:37.772Z,283.00
2023-01-10T20:45:36.935Z,243.10
2023-01-10T20:50:37.248Z,156.20
2023-01-10T20:55:35.447Z,91.00
2023-01-10T21:00:35.628Z,75.70
2023-01-10T21:05:33.832Z,42.00
2023-01-10T21:10:34.034Z,142.00
2023-01-10T21:15:32.253Z,215.90
2023-01-10T21:20:32.448Z,202.50
2023-01-10T21:25:30.657Z,175.10
2023-01-10T21:30:29.829Z,147.20
2023-01-10T21:35:29.028Z,35.00
2023-01-10T21:40:30.345Z,91.30
2023-01-10T21:45:27.513Z,85.90
2023-01-10T21:50:27.726Z,171.50
2023-01-10T21:55:26.934Z,58.00
2023-01-10T22:00:25.364Z,67.20
2023-01-10T22:05:24.407Z,43.00
2023-01-10T22:10:25.588Z,38.80
2023-01-10T22:15:22.842Z,50.50
2023-01-10T22:20:22.057Z,29.20
2023-01-10T22:25:23.299Z,49.10
2023-01-10T22:30:19.535Z,44.50
2023-01-10T22:35:19.751Z,170.20
2023-01-10T22:40:19.213Z,47.30
2023-01-10T22:45:19.224Z,121.60
2023-01-10T22:50:19.442Z,98.50
2023-01-10T22:55:16.611Z,68.80
2023-01-10T23:00:15.909Z,36.40
2023-01-10T23:05:16.058Z,84.50
2023-01-10T23:10:29.223Z,97.00
2023-01-10T23:15:13.352Z,105.70
2023-01-10T23:20:12.533Z,55.50
2023-01-10T23:25:12.683Z,13.30
2023-01-10T23:30:11.436Z,40.00
2023-01-10T23:35:11.279Z,35.00
2023-01-10T23:40:10.891Z,8.60
2023-01-10T23:45:09.629Z,10.80
2023-01-10T23:50:08.763Z,29.10
2023-01-10T23:55:08.927Z,24.60
